sensor_id;sensor_type;location;lat;lon;timestamp;temperature;humidity
45579;DHT22;31293;51.390;12.254;2023-10-08T00:01:26;18.10;92.80
45579;DHT22;31293;51.390;12.254;2023-10-08T00:03:28;18.10;92.80
45579;DHT22;31293;51.390;12.254;2023-10-08T00:05:36;18.20;92.80
45579;DHT22;31293;51.390;12.254;2023-10-08T00:07:39;18.20;92.70
45579;DHT22;31293;51.390;12.254;2023-10-08T00:09:44;18.30;92.80
45579;DHT22;31293;51.390;12.254;2023-10-08T00:11:46;18.30;92.60
45579;DHT22;31293;51.390;12.254;2023-10-08T00:13:54;18.30;92.70
45579;DHT22;31293;51.390;12.254;2023-10-08T00:15:58;18.20;93.00
45579;DHT22;31293;51.390;12.254;2023-10-08T00:18:00;18.20;93.00
45579;DHT22;31293;51.390;12.254;2023-10-08T00:20:03;18.20;93.20
45579;DHT22;31293;51.390;12.254;2023-10-08T00:22:06;18.10;93.50
45579;DHT22;31293;51.390;12.254;2023-10-08T00:24:09;18.20;93.50
45579;DHT22;31293;51.390;12.254;2023-10-08T00:26:11;18.00;93.70
45579;DHT22;31293;51.390;12.254;2023-10-08T00:28:15;18.00;94.00
45579;DHT22;31293;51.390;12.254;2023-10-08T00:30:18;18.00;94.30
45579;DHT22;31293;51.390;12.254;2023-10-08T00:32:20;17.90;94.40
45579;DHT22;31293;51.390;12.254;2023-10-08T00:34:23;17.90;94.30
45579;DHT22;31293;51.390;12.254;2023-10-08T00:36:26;17.80;94.50
45579;DHT22;31293;51.390;12.254;2023-10-08T00:38:28;17.80;94.70
45579;DHT22;31293;51.390;12.254;2023-10-08T00:40:38;17.70;95.00
45579;DHT22;31293;51.390;12.254;2023-10-08T00:42:46;17.70;95.40
45579;DHT22;31293;51.390;12.254;2023-10-08T00:44:48;17.60;95.70
45579;DHT22;31293;51.390;12.254;2023-10-08T00:46:52;17.60;96.20
45579;DHT22;31293;51.390;12.254;2023-10-08T00:48:59;17.50;96.10
45579;DHT22;31293;51.390;12.254;2023-10-08T00:51:19;17.60;96.30
45579;DHT22;31293;51.390;12.254;2023-10-08T00:53:24;17.50;96.30
45579;DHT22;31293;51.390;12.254;2023-10-08T00:55:27;17.50;96.90
45579;DHT22;31293;51.390;12.254;2023-10-08T00:57:36;17.40;97.10
45579;DHT22;31293;51.390;12.254;2023-10-08T00:59:38;17.30;97.80
45579;DHT22;31293;51.390;12.254;2023-10-08T01:01:48;17.30;98.50
45579;DHT22;31293;51.390;12.254;2023-10-08T01:03:53;17.20;99.10
45579;DHT22;31293;51.390;12.254;2023-10-08T01:05:57;17.10;99.80
45579;DHT22;31293;51.390;12.254;2023-10-08T01:07:59;17.10;99.90
45579;DHT22;31293;51.390;12.254;2023-10-08T01:10:03;17.00;99.90
45579;DHT22;31293;51.390;12.254;2023-10-08T01:12:17;16.70;99.90
45579;DHT22;31293;51.390;12.254;2023-10-08T01:14:33;16.20;99.90
45579;DHT22;31293;51.390;12.254;2023-10-08T01:16:35;15.70;99.90
45579;DHT22;31293;51.390;12.254;2023-10-08T01:18:37;15.50;99.90
45579;DHT22;31293;51.390;12.254;2023-10-08T01:20:45;15.40;99.90
45579;DHT22;31293;51.390;12.254;2023-10-08T01:22:49;15.30;99.90
45579;DHT22;31293;51.390;12.254;2023-10-08T01:24:52;15.20;99.90
45579;DHT22;31293;51.390;12.254;2023-10-08T01:26:53;14.90;99.90
45579;DHT22;31293;51.390;12.254;2023-10-08T01:28:55;14.80;99.90
45579;DHT22;31293;51.390;12.254;2023-10-08T01:30:59;14.60;99.90
45579;DHT22;31293;51.390;12.254;2023-10-08T01:33:02;14.30;99.90
45579;DHT22;31293;51.390;12.254;2023-10-08T01:35:05;14.10;99.90
45579;DHT22;31293;51.390;12.254;2023-10-08T01:37:23;13.90;99.90
45579;DHT22;31293;51.390;12.254;2023-10-08T01:39:25;13.70;99.90
45579;DHT22;31293;51.390;12.254;2023-10-08T01:41:28;13.70;99.90
45579;DHT22;31293;51.390;12.254;2023-10-08T01:43:33;13.50;99.90
45579;DHT22;31293;51.390;12.254;2023-10-08T01:45:37;13.40;99.90
45579;DHT22;31293;51.390;12.254;2023-10-08T01:47:42;13.30;99.90
45579;DHT22;31293;51.390;12.254;2023-10-08T01:49:45;13.30;99.90
45579;DHT22;31293;51.390;12.254;2023-10-08T01:51:48;13.10;99.90
45579;DHT22;31293;51.390;12.254;2023-10-08T01:53:54;13.10;99.90
45579;DHT22;31293;51.390;12.254;2023-10-08T01:56:01;13.00;99.90
45579;DHT22;31293;51.390;12.254;2023-10-08T01:58:03;12.90;99.90
45579;DHT22;31293;51.390;12.254;2023-10-08T02:00:06;12.80;99.90
45579;DHT22;31293;51.390;12.254;2023-10-08T02:02:11;12.80;99.90
45579;DHT22;31293;51.390;12.254;2023-10-08T02:04:14;12.70;99.90
45579;DHT22;31293;51.390;12.254;2023-10-08T02:06:19;12.70;99.90
45579;DHT22;31293;51.390;12.254;2023-10-08T02:08:22;12.60;99.90
45579;DHT22;31293;51.390;12.254;2023-10-08T02:10:25;12.60;99.90
45579;DHT22;31293;51.390;12.254;2023-10-08T02:12:27;12.60;99.90
45579;DHT22;31293;51.390;12.254;2023-10-08T02:14:30;12.60;99.90
45579;DHT22;31293;51.390;12.254;2023-10-08T02:16:33;12.60;99.90
45579;DHT22;31293;51.390;12.254;2023-10-08T02:18:35;12.60;99.90
45579;DHT22;31293;51.390;12.254;2023-10-08T02:20:39;12.50;99.90
45579;DHT22;31293;51.390;12.254;2023-10-08T02:22:41;12.40;99.90
45579;DHT22;31293;51.390;12.254;2023-10-08T02:24:43;12.40;99.90
45579;DHT22;31293;51.390;12.254;2023-10-08T02:26:45;12.40;99.90
45579;DHT22;31293;51.390;12.254;2023-10-08T02:28:47;12.30;99.90
45579;DHT22;31293;51.390;12.254;2023-10-08T02:30:50;12.20;99.90
45579;DHT22;31293;51.390;12.254;2023-10-08T02:32:52;12.20;99.90
45579;DHT22;31293;51.390;12.254;2023-10-08T02:34:54;12.20;99.90
45579;DHT22;31293;51.390;12.254;2023-10-08T02:36:58;12.10;99.90
45579;DHT22;31293;51.390;12.254;2023-10-08T02:39:01;12.10;99.90
45579;DHT22;31293;51.390;12.254;2023-10-08T02:41:07;12.10;99.90
45579;DHT22;31293;51.390;12.254;2023-10-08T02:43:11;12.10;99.90
45579;DHT22;31293;51.390;12.254;2023-10-08T02:45:13;12.00;99.90
45579;DHT22;31293;51.390;12.254;2023-10-08T02:47:15;12.00;99.90
45579;DHT22;31293;51.390;12.254;2023-10-08T02:49:22;12.00;99.90
45579;DHT22;31293;51.390;12.254;2023-10-08T02:51:27;12.00;99.90
45579;DHT22;31293;51.390;12.254;2023-10-08T02:53:28;12.00;99.90
45579;DHT22;31293;51.390;12.254;2023-10-08T02:55:31;12.00;99.90
45579;DHT22;31293;51.390;12.254;2023-10-08T02:57:36;11.90;99.90
45579;DHT22;31293;51.390;12.254;2023-10-08T02:59:39;11.90;99.90
45579;DHT22;31293;51.390;12.254;2023-10-08T03:01:42;11.90;99.90
45579;DHT22;31293;51.390;12.254;2023-10-08T03:03:44;11.90;99.90
45579;DHT22;31293;51.390;12.254;2023-10-08T03:05:49;11.80;99.90
45579;DHT22;31293;51.390;12.254;2023-10-08T03:07:52;11.80;99.90
45579;DHT22;31293;51.390;12.254;2023-10-08T03:09:54;11.80;99.90
45579;DHT22;31293;51.390;12.254;2023-10-08T03:12:05;11.80;99.90
45579;DHT22;31293;51.390;12.254;2023-10-08T03:14:10;11.80;99.90
45579;DHT22;31293;51.390;12.254;2023-10-08T03:16:17;11.80;99.90
45579;DHT22;31293;51.390;12.254;2023-10-08T03:18:23;11.80;99.90
45579;DHT22;31293;51.390;12.254;2023-10-08T03:20:26;11.80;99.90
45579;DHT22;31293;51.390;12.254;2023-10-08T03:22:48;11.70;99.90
45579;DHT22;31293;51.390;12.254;2023-10-08T03:24:51;11.70;99.90
45579;DHT22;31293;51.390;12.254;2023-10-08T03:26:53;11.70;99.90
45579;DHT22;31293;51.390;12.254;2023-10-08T03:28:59;11.70;99.90
45579;DHT22;31293;51.390;12.254;2023-10-08T03:31:02;11.70;99.90
45579;DHT22;31293;51.390;12.254;2023-10-08T03:33:07;11.60;99.90
45579;DHT22;31293;51.390;12.254;2023-10-08T03:35:12;11.60;99.90
45579;DHT22;31293;51.390;12.254;2023-10-08T03:37:18;11.60;99.90
45579;DHT22;31293;51.390;12.254;2023-10-08T03:39:24;11.50;99.90
45579;DHT22;31293;51.390;12.254;2023-10-08T03:41:41;11.50;99.90
45579;DHT22;31293;51.390;12.254;2023-10-08T03:43:44;11.50;99.90
45579;DHT22;31293;51.390;12.254;2023-10-08T03:45:54;11.50;99.90
45579;DHT22;31293;51.390;12.254;2023-10-08T03:48:00;11.50;99.90
45579;DHT22;31293;51.390;12.254;2023-10-08T03:50:13;11.40;99.90
45579;DHT22;31293;51.390;12.254;2023-10-08T03:52:20;11.40;99.90
45579;DHT22;31293;51.390;12.254;2023-10-08T03:54:28;11.40;99.90
45579;DHT22;31293;51.390;12.254;2023-10-08T03:56:37;11.40;99.90
45579;DHT22;31293;51.390;12.254;2023-10-08T03:58:39;11.40;99.90
45579;DHT22;31293;51.390;12.254;2023-10-08T04:00:49;11.40;99.90
45579;DHT22;31293;51.390;12.254;2023-10-08T04:02:51;11.40;99.90
45579;DHT22;31293;51.390;12.254;2023-10-08T04:04:57;11.40;99.90
45579;DHT22;31293;51.390;12.254;2023-10-08T04:06:59;11.30;99.90
45579;DHT22;31293;51.390;12.254;2023-10-08T04:09:21;11.20;99.90
45579;DHT22;31293;51.390;12.254;2023-10-08T04:11:26;11.10;99.90
45579;DHT22;31293;51.390;12.254;2023-10-08T04:13:37;11.10;99.90
45579;DHT22;31293;51.390;12.254;2023-10-08T04:15:46;11.00;99.90
45579;DHT22;31293;51.390;12.254;2023-10-08T04:17:48;10.90;99.90
45579;DHT22;31293;51.390;12.254;2023-10-08T04:19:53;10.90;99.90
45579;DHT22;31293;51.390;12.254;2023-10-08T04:21:56;10.80;99.90
45579;DHT22;31293;51.390;12.254;2023-10-08T04:23:59;10.80;99.90
45579;DHT22;31293;51.390;12.254;2023-10-08T04:26:05;10.80;99.90
45579;DHT22;31293;51.390;12.254;2023-10-08T04:28:08;10.80;99.90
45579;DHT22;31293;51.390;12.254;2023-10-08T04:30:16;10.80;99.90
45579;DHT22;31293;51.390;12.254;2023-10-08T04:32:18;10.80;99.90
45579;DHT22;31293;51.390;12.254;2023-10-08T04:34:28;10.80;99.90
45579;DHT22;31293;51.390;12.254;2023-10-08T04:36:30;10.70;99.90
45579;DHT22;31293;51.390;12.254;2023-10-08T04:38:33;10.60;99.90
45579;DHT22;31293;51.390;12.254;2023-10-08T04:40:41;10.60;99.90
45579;DHT22;31293;51.390;12.254;2023-10-08T04:42:49;10.60;99.90
45579;DHT22;31293;51.390;12.254;2023-10-08T04:44:51;10.60;99.90
45579;DHT22;31293;51.390;12.254;2023-10-08T04:46:54;10.60;99.90
45579;DHT22;31293;51.390;12.254;2023-10-08T04:48:56;10.60;99.90
45579;DHT22;31293;51.390;12.254;2023-10-08T04:51:00;10.50;99.90
45579;DHT22;31293;51.390;12.254;2023-10-08T04:53:03;10.50;99.90
45579;DHT22;31293;51.390;12.254;2023-10-08T04:55:09;10.50;99.90
45579;DHT22;31293;51.390;12.254;2023-10-08T04:57:19;10.50;99.90
45579;DHT22;31293;51.390;12.254;2023-10-08T04:59:26;10.50;99.90
45579;DHT22;31293;51.390;12.254;2023-10-08T05:01:34;10.50;99.90
45579;DHT22;31293;51.390;12.254;2023-10-08T05:04:11;10.40;99.90
45579;DHT22;31293;51.390;12.254;2023-10-08T05:06:32;10.40;99.90
45579;DHT22;31293;51.390;12.254;2023-10-08T05:08:37;10.50;99.90
45579;DHT22;31293;51.390;12.254;2023-10-08T05:11:00;10.40;99.90
45579;DHT22;31293;51.390;12.254;2023-10-08T05:13:16;10.40;99.90
45579;DHT22;31293;51.390;12.254;2023-10-08T05:15:18;10.40;99.90
45579;DHT22;31293;51.390;12.254;2023-10-08T05:17:34;10.40;99.90
45579;DHT22;31293;51.390;12.254;2023-10-08T05:19:57;10.40;99.90
45579;DHT22;31293;51.390;12.254;2023-10-08T05:22:05;10.40;99.90
45579;DHT22;31293;51.390;12.254;2023-10-08T05:24:28;10.40;99.90
45579;DHT22;31293;51.390;12.254;2023-10-08T05:26:40;10.40;99.90
45579;DHT22;31293;51.390;12.254;2023-10-08T05:28:46;10.40;99.90
45579;DHT22;31293;51.390;12.254;2023-10-08T05:31:09;10.40;99.90
45579;DHT22;31293;51.390;12.254;2023-10-08T05:33:17;10.40;99.90
45579;DHT22;31293;51.390;12.254;2023-10-08T05:35:19;10.40;99.90
45579;DHT22;31293;51.390;12.254;2023-10-08T05:37:58;10.50;99.90
45579;DHT22;31293;51.390;12.254;2023-10-08T05:40:14;10.40;99.90
45579;DHT22;31293;51.390;12.254;2023-10-08T05:42:45;10.40;99.90
45579;DHT22;31293;51.390;12.254;2023-10-08T05:45:04;10.40;99.90
45579;DHT22;31293;51.390;12.254;2023-10-08T05:47:16;10.50;99.90
45579;DHT22;31293;51.390;12.254;2023-10-08T05:49:40;10.50;99.90
45579;DHT22;31293;51.390;12.254;2023-10-08T05:51:56;10.40;99.90
45579;DHT22;31293;51.390;12.254;2023-10-08T05:54:23;10.40;99.90
45579;DHT22;31293;51.390;12.254;2023-10-08T05:56:28;10.40;99.90
45579;DHT22;31293;51.390;12.254;2023-10-08T05:58:31;10.40;99.90
45579;DHT22;31293;51.390;12.254;2023-10-08T06:00:50;10.40;99.90
45579;DHT22;31293;51.390;12.254;2023-10-08T06:02:52;10.40;99.90
45579;DHT22;31293;51.390;12.254;2023-10-08T06:05:23;10.40;99.90
45579;DHT22;31293;51.390;12.254;2023-10-08T06:07:28;10.40;99.90
45579;DHT22;31293;51.390;12.254;2023-10-08T06:09:49;10.40;99.90
45579;DHT22;31293;51.390;12.254;2023-10-08T06:12:04;10.40;99.90
45579;DHT22;31293;51.390;12.254;2023-10-08T06:14:12;10.40;99.90
45579;DHT22;31293;51.390;12.254;2023-10-08T06:16:15;10.40;99.90
45579;DHT22;31293;51.390;12.254;2023-10-08T06:18:33;10.40;99.90
45579;DHT22;31293;51.390;12.254;2023-10-08T06:20:36;10.40;99.90
45579;DHT22;31293;51.390;12.254;2023-10-08T06:22:42;10.40;99.90
45579;DHT22;31293;51.390;12.254;2023-10-08T06:24:45;10.40;99.90
45579;DHT22;31293;51.390;12.254;2023-10-08T06:26:46;10.40;99.90
45579;DHT22;31293;51.390;12.254;2023-10-08T06:28:53;10.40;99.90
45579;DHT22;31293;51.390;12.254;2023-10-08T06:31:00;10.40;99.90
45579;DHT22;31293;51.390;12.254;2023-10-08T06:33:03;10.40;99.90
45579;DHT22;31293;51.390;12.254;2023-10-08T06:35:06;10.50;99.90
45579;DHT22;31293;51.390;12.254;2023-10-08T06:37:08;10.50;99.90
45579;DHT22;31293;51.390;12.254;2023-10-08T06:39:10;10.50;99.90
45579;DHT22;31293;51.390;12.254;2023-10-08T06:41:15;10.40;99.90
45579;DHT22;31293;51.390;12.254;2023-10-08T06:43:46;10.40;99.90
45579;DHT22;31293;51.390;12.254;2023-10-08T06:45:52;10.40;99.90
45579;DHT22;31293;51.390;12.254;2023-10-08T06:47:56;10.30;99.90
45579;DHT22;31293;51.390;12.254;2023-10-08T06:49:59;10.30;99.90
45579;DHT22;31293;51.390;12.254;2023-10-08T06:52:01;10.30;99.90
45579;DHT22;31293;51.390;12.254;2023-10-08T06:54:07;10.30;99.90
45579;DHT22;31293;51.390;12.254;2023-10-08T06:56:16;10.30;99.90
45579;DHT22;31293;51.390;12.254;2023-10-08T06:58:18;10.30;99.90
45579;DHT22;31293;51.390;12.254;2023-10-08T07:00:20;10.30;99.90
45579;DHT22;31293;51.390;12.254;2023-10-08T07:02:39;10.20;99.90
45579;DHT22;31293;51.390;12.254;2023-10-08T07:04:41;10.20;99.90
45579;DHT22;31293;51.390;12.254;2023-10-08T07:06:45;10.20;99.90
45579;DHT22;31293;51.390;12.254;2023-10-08T07:08:59;10.20;99.90
45579;DHT22;31293;51.390;12.254;2023-10-08T07:11:02;10.20;99.90
45579;DHT22;31293;51.390;12.254;2023-10-08T07:13:13;10.20;99.90
45579;DHT22;31293;51.390;12.254;2023-10-08T07:15:19;10.20;99.90
45579;DHT22;31293;51.390;12.254;2023-10-08T07:17:28;10.20;99.90
45579;DHT22;31293;51.390;12.254;2023-10-08T07:19:42;10.20;99.90
45579;DHT22;31293;51.390;12.254;2023-10-08T07:21:50;10.20;99.90
45579;DHT22;31293;51.390;12.254;2023-10-08T07:23:57;10.30;99.90
45579;DHT22;31293;51.390;12.254;2023-10-08T07:26:03;10.30;99.90
45579;DHT22;31293;51.390;12.254;2023-10-08T07:28:15;10.30;99.90
45579;DHT22;31293;51.390;12.254;2023-10-08T07:30:21;10.40;99.90
45579;DHT22;31293;51.390;12.254;2023-10-08T07:32:28;10.50;99.90
45579;DHT22;31293;51.390;12.254;2023-10-08T07:34:34;10.40;99.90
45579;DHT22;31293;51.390;12.254;2023-10-08T07:36:37;10.30;99.90
45579;DHT22;31293;51.390;12.254;2023-10-08T07:38:43;10.30;99.90
45579;DHT22;31293;51.390;12.254;2023-10-08T07:40:47;10.30;99.90
45579;DHT22;31293;51.390;12.254;2023-10-08T07:42:50;10.30;99.90
45579;DHT22;31293;51.390;12.254;2023-10-08T07:44:55;10.30;99.90
45579;DHT22;31293;51.390;12.254;2023-10-08T07:46:59;10.20;99.90
45579;DHT22;31293;51.390;12.254;2023-10-08T07:49:01;10.30;99.90
45579;DHT22;31293;51.390;12.254;2023-10-08T07:51:05;10.30;99.90
45579;DHT22;31293;51.390;12.254;2023-10-08T07:53:09;10.40;99.90
45579;DHT22;31293;51.390;12.254;2023-10-08T07:55:21;10.50;99.90
45579;DHT22;31293;51.390;12.254;2023-10-08T07:57:24;10.50;99.90
45579;DHT22;31293;51.390;12.254;2023-10-08T07:59:29;10.60;99.90
45579;DHT22;31293;51.390;12.254;2023-10-08T08:01:32;10.60;99.90
45579;DHT22;31293;51.390;12.254;2023-10-08T08:03:36;10.50;99.90
45579;DHT22;31293;51.390;12.254;2023-10-08T08:05:39;10.50;99.90
45579;DHT22;31293;51.390;12.254;2023-10-08T08:07:49;10.50;99.90
45579;DHT22;31293;51.390;12.254;2023-10-08T08:09:56;10.50;99.90
45579;DHT22;31293;51.390;12.254;2023-10-08T08:12:03;10.60;99.90
45579;DHT22;31293;51.390;12.254;2023-10-08T08:14:09;10.70;99.90
45579;DHT22;31293;51.390;12.254;2023-10-08T08:16:14;10.60;99.90
45579;DHT22;31293;51.390;12.254;2023-10-08T08:18:20;10.70;99.90
45579;DHT22;31293;51.390;12.254;2023-10-08T08:20:24;10.80;99.90
45579;DHT22;31293;51.390;12.254;2023-10-08T08:22:37;10.70;99.90
45579;DHT22;31293;51.390;12.254;2023-10-08T08:24:42;10.80;99.90
45579;DHT22;31293;51.390;12.254;2023-10-08T08:26:49;10.90;99.90
45579;DHT22;31293;51.390;12.254;2023-10-08T08:29:10;10.90;99.90
45579;DHT22;31293;51.390;12.254;2023-10-08T08:31:17;11.00;99.90
45579;DHT22;31293;51.390;12.254;2023-10-08T08:33:21;11.00;99.90
45579;DHT22;31293;51.390;12.254;2023-10-08T08:35:26;11.00;99.90
45579;DHT22;31293;51.390;12.254;2023-10-08T08:37:28;11.10;99.90
45579;DHT22;31293;51.390;12.254;2023-10-08T08:39:35;11.40;99.90
45579;DHT22;31293;51.390;12.254;2023-10-08T08:41:38;11.50;99.90
45579;DHT22;31293;51.390;12.254;2023-10-08T08:43:41;11.40;99.90
45579;DHT22;31293;51.390;12.254;2023-10-08T08:45:46;11.50;99.90
45579;DHT22;31293;51.390;12.254;2023-10-08T08:47:51;11.70;99.90
45579;DHT22;31293;51.390;12.254;2023-10-08T08:49:55;12.00;99.90
45579;DHT22;31293;51.390;12.254;2023-10-08T08:52:01;11.80;99.90
45579;DHT22;31293;51.390;12.254;2023-10-08T08:54:04;11.80;99.90
45579;DHT22;31293;51.390;12.254;2023-10-08T08:56:10;11.70;99.90
45579;DHT22;31293;51.390;12.254;2023-10-08T08:58:12;11.90;99.90
45579;DHT22;31293;51.390;12.254;2023-10-08T09:00:16;12.20;99.90
45579;DHT22;31293;51.390;12.254;2023-10-08T09:02:19;12.20;99.90
45579;DHT22;31293;51.390;12.254;2023-10-08T09:04:30;12.40;99.90
45579;DHT22;31293;51.390;12.254;2023-10-08T09:06:37;12.90;99.90
45579;DHT22;31293;51.390;12.254;2023-10-08T09:08:40;13.10;99.90
45579;DHT22;31293;51.390;12.254;2023-10-08T09:10:47;13.00;99.90
45579;DHT22;31293;51.390;12.254;2023-10-08T09:12:57;13.20;99.90
45579;DHT22;31293;51.390;12.254;2023-10-08T09:15:02;12.90;99.00
45579;DHT22;31293;51.390;12.254;2023-10-08T09:17:06;12.90;99.20
45579;DHT22;31293;51.390;12.254;2023-10-08T09:19:08;13.20;99.90
45579;DHT22;31293;51.390;12.254;2023-10-08T09:21:18;13.30;98.10
45579;DHT22;31293;51.390;12.254;2023-10-08T09:23:24;13.40;97.80
45579;DHT22;31293;51.390;12.254;2023-10-08T09:25:26;13.80;98.40
45579;DHT22;31293;51.390;12.254;2023-10-08T09:27:30;14.10;95.30
45579;DHT22;31293;51.390;12.254;2023-10-08T09:29:33;14.20;95.80
45579;DHT22;31293;51.390;12.254;2023-10-08T09:31:42;14.10;96.20
45579;DHT22;31293;51.390;12.254;2023-10-08T09:33:54;13.80;96.60
45579;DHT22;31293;51.390;12.254;2023-10-08T09:35:58;13.80;95.30
45579;DHT22;31293;51.390;12.254;2023-10-08T09:38:06;13.50;96.30
45579;DHT22;31293;51.390;12.254;2023-10-08T09:40:11;13.50;96.70
45579;DHT22;31293;51.390;12.254;2023-10-08T09:42:14;13.50;95.60
45579;DHT22;31293;51.390;12.254;2023-10-08T09:44:19;13.60;95.40
45579;DHT22;31293;51.390;12.254;2023-10-08T09:46:29;13.50;96.00
45579;DHT22;31293;51.390;12.254;2023-10-08T09:48:37;13.50;96.10
45579;DHT22;31293;51.390;12.254;2023-10-08T09:50:42;13.70;96.10
45579;DHT22;31293;51.390;12.254;2023-10-08T09:53:01;13.50;95.30
45579;DHT22;31293;51.390;12.254;2023-10-08T09:55:10;13.70;96.10
45579;DHT22;31293;51.390;12.254;2023-10-08T09:57:12;13.80;96.70
45579;DHT22;31293;51.390;12.254;2023-10-08T09:59:15;13.90;96.00
45579;DHT22;31293;51.390;12.254;2023-10-08T10:01:19;14.20;94.40
45579;DHT22;31293;51.390;12.254;2023-10-08T10:03:22;14.20;94.90
45579;DHT22;31293;51.390;12.254;2023-10-08T10:05:29;14.30;93.70
45579;DHT22;31293;51.390;12.254;2023-10-08T10:07:32;14.10;95.10
45579;DHT22;31293;51.390;12.254;2023-10-08T10:09:35;14.40;94.70
45579;DHT22;31293;51.390;12.254;2023-10-08T10:11:38;14.70;94.20
45579;DHT22;31293;51.390;12.254;2023-10-08T10:13:44;14.70;93.10
45579;DHT22;31293;51.390;12.254;2023-10-08T10:15:48;14.30;94.10
45579;DHT22;31293;51.390;12.254;2023-10-08T10:17:51;14.20;93.90
45579;DHT22;31293;51.390;12.254;2023-10-08T10:19:54;13.90;94.00
45579;DHT22;31293;51.390;12.254;2023-10-08T10:21:59;14.00;96.00
45579;DHT22;31293;51.390;12.254;2023-10-08T10:24:01;14.40;94.40
45579;DHT22;31293;51.390;12.254;2023-10-08T10:26:04;14.20;93.90
45579;DHT22;31293;51.390;12.254;2023-10-08T10:30:10;14.90;94.00
45579;DHT22;31293;51.390;12.254;2023-10-08T10:32:16;14.40;92.80
45579;DHT22;31293;51.390;12.254;2023-10-08T10:34:27;14.20;93.80
45579;DHT22;31293;51.390;12.254;2023-10-08T10:36:29;14.50;94.40
45579;DHT22;31293;51.390;12.254;2023-10-08T10:38:33;14.80;92.50
45579;DHT22;31293;51.390;12.254;2023-10-08T10:40:36;14.90;92.40
45579;DHT22;31293;51.390;12.254;2023-10-08T10:42:47;15.20;92.60
45579;DHT22;31293;51.390;12.254;2023-10-08T10:44:56;15.00;91.60
45579;DHT22;31293;51.390;12.254;2023-10-08T10:47:02;15.20;93.30
45579;DHT22;31293;51.390;12.254;2023-10-08T10:49:25;15.50;92.80
45579;DHT22;31293;51.390;12.254;2023-10-08T10:51:33;15.80;92.20
45579;DHT22;31293;51.390;12.254;2023-10-08T10:53:40;15.70;90.20
45579;DHT22;31293;51.390;12.254;2023-10-08T10:56:01;15.50;90.40
45579;DHT22;31293;51.390;12.254;2023-10-08T10:58:11;15.50;91.10
45579;DHT22;31293;51.390;12.254;2023-10-08T11:00:14;15.80;92.60
45579;DHT22;31293;51.390;12.254;2023-10-08T11:02:35;15.90;90.10
45579;DHT22;31293;51.390;12.254;2023-10-08T11:04:41;16.00;90.00
45579;DHT22;31293;51.390;12.254;2023-10-08T11:06:55;15.60;90.40
45579;DHT22;31293;51.390;12.254;2023-10-08T11:09:00;15.70;90.00
45579;DHT22;31293;51.390;12.254;2023-10-08T11:11:03;15.30;88.60
45579;DHT22;31293;51.390;12.254;2023-10-08T11:13:10;15.70;91.10
45579;DHT22;31293;51.390;12.254;2023-10-08T11:15:19;16.60;87.20
45579;DHT22;31293;51.390;12.254;2023-10-08T11:17:26;16.60;87.10
45579;DHT22;31293;51.390;12.254;2023-10-08T11:19:31;17.10;83.70
45579;DHT22;31293;51.390;12.254;2023-10-08T11:21:51;17.20;84.80
45579;DHT22;31293;51.390;12.254;2023-10-08T11:23:55;17.60;81.10
45579;DHT22;31293;51.390;12.254;2023-10-08T11:26:02;16.80;80.70
45579;DHT22;31293;51.390;12.254;2023-10-08T11:28:07;16.20;87.60
45579;DHT22;31293;51.390;12.254;2023-10-08T11:30:17;17.80;83.10
45579;DHT22;31293;51.390;12.254;2023-10-08T11:32:24;17.00;79.00
45579;DHT22;31293;51.390;12.254;2023-10-08T11:34:33;16.10;86.30
45579;DHT22;31293;51.390;12.254;2023-10-08T11:36:41;16.10;86.30
45579;DHT22;31293;51.390;12.254;2023-10-08T11:38:56;16.70;87.20
45579;DHT22;31293;51.390;12.254;2023-10-08T11:41:14;17.10;82.70
45579;DHT22;31293;51.390;12.254;2023-10-08T11:43:23;19.40;80.80
45579;DHT22;31293;51.390;12.254;2023-10-08T11:45:26;22.30;70.20
45579;DHT22;31293;51.390;12.254;2023-10-08T11:47:29;18.80;75.40
45579;DHT22;31293;51.390;12.254;2023-10-08T11:49:39;18.50;77.90
45579;DHT22;31293;51.390;12.254;2023-10-08T11:51:48;20.00;79.20
45579;DHT22;31293;51.390;12.254;2023-10-08T11:53:51;20.50;73.40
45579;DHT22;31293;51.390;12.254;2023-10-08T11:55:53;21.60;66.70
45579;DHT22;31293;51.390;12.254;2023-10-08T11:57:58;22.50;66.20
45579;DHT22;31293;51.390;12.254;2023-10-08T12:00:02;22.90;63.90
45579;DHT22;31293;51.390;12.254;2023-10-08T12:02:33;22.70;66.50
45579;DHT22;31293;51.390;12.254;2023-10-08T12:04:35;22.40;66.80
45579;DHT22;31293;51.390;12.254;2023-10-08T12:06:40;21.90;67.70
45579;DHT22;31293;51.390;12.254;2023-10-08T12:08:50;21.30;66.50
45579;DHT22;31293;51.390;12.254;2023-10-08T12:10:55;19.30;72.30
45579;DHT22;31293;51.390;12.254;2023-10-08T12:12:57;19.00;71.50
45579;DHT22;31293;51.390;12.254;2023-10-08T12:15:01;18.20;72.50
45579;DHT22;31293;51.390;12.254;2023-10-08T12:17:05;17.90;75.00
45579;DHT22;31293;51.390;12.254;2023-10-08T12:19:13;17.30;77.30
45579;DHT22;31293;51.390;12.254;2023-10-08T12:21:20;16.10;79.30
45579;DHT22;31293;51.390;12.254;2023-10-08T12:23:25;15.20;84.00
45579;DHT22;31293;51.390;12.254;2023-10-08T12:25:28;14.70;87.30
45579;DHT22;31293;51.390;12.254;2023-10-08T12:27:30;15.40;89.30
45579;DHT22;31293;51.390;12.254;2023-10-08T12:29:32;15.90;84.70
45579;DHT22;31293;51.390;12.254;2023-10-08T12:31:34;15.90;84.60
45579;DHT22;31293;51.390;12.254;2023-10-08T12:33:36;15.60;84.10
45579;DHT22;31293;51.390;12.254;2023-10-08T12:35:40;15.30;84.50
45579;DHT22;31293;51.390;12.254;2023-10-08T12:37:43;15.00;85.70
45579;DHT22;31293;51.390;12.254;2023-10-08T12:39:48;14.80;89.00
45579;DHT22;31293;51.390;12.254;2023-10-08T12:42:13;14.90;88.20
45579;DHT22;31293;51.390;12.254;2023-10-08T12:44:14;14.90;89.10
45579;DHT22;31293;51.390;12.254;2023-10-08T12:46:18;14.50;89.90
45579;DHT22;31293;51.390;12.254;2023-10-08T12:48:27;14.40;90.50
45579;DHT22;31293;51.390;12.254;2023-10-08T12:50:30;14.50;90.70
45579;DHT22;31293;51.390;12.254;2023-10-08T12:52:40;14.60;90.60
45579;DHT22;31293;51.390;12.254;2023-10-08T12:54:48;14.60;90.00
45579;DHT22;31293;51.390;12.254;2023-10-08T12:56:54;14.80;90.40
45579;DHT22;31293;51.390;12.254;2023-10-08T12:58:58;15.20;89.10
45579;DHT22;31293;51.390;12.254;2023-10-08T13:01:00;15.70;88.00
45579;DHT22;31293;51.390;12.254;2023-10-08T13:03:05;16.70;83.10
45579;DHT22;31293;51.390;12.254;2023-10-08T13:05:13;18.30;80.10
45579;DHT22;31293;51.390;12.254;2023-10-08T13:07:18;19.10;76.80
45579;DHT22;31293;51.390;12.254;2023-10-08T13:09:24;19.70;74.40